Time;durP1;ratioP1;P1;durP2;ratioP2;P2;SDS_P1;SDS_P2;PMS_P1;PMS_P2;Temp;Humidity;BMP_temperature;BMP_pressure;BME280_temperature;BME280_humidity;BME280_pressure;Samples;Min_cycle;Max_cycle;Signal;HPM_P1;HPM_P2
2021/07/24 00:00:57;;;;;;;8.95;4.30;;;;;;;18.59;66.17;100942.34;5020351;28;20056;-77
2021/07/24 00:03:23;;;;;;;8.52;3.92;;;;;;;18.58;66.53;100934.66;5017142;28;20040;-76
2021/07/24 00:05:49;;;;;;;11.02;4.13;;;;;;;18.54;66.78;100930.84;5025197;28;20037;-76
2021/07/24 00:08:15;;;;;;;6.43;3.58;;;;;;;18.49;67.03;100932.22;5035506;28;20033;-76
2021/07/24 00:10:41;;;;;;;5.82;3.95;;;;;;;18.46;67.32;100929.22;5030680;28;20487;-76
2021/07/24 00:13:06;;;;;;;5.45;3.50;;;;;;;18.44;67.09;100918.94;5022869;28;20503;-77
2021/07/24 00:15:32;;;;;;;5.72;3.28;;;;;;;18.41;67.18;100919.34;5028890;28;20044;-77
2021/07/24 00:17:58;;;;;;;6.78;3.78;;;;;;;18.41;67.06;100911.47;5032272;28;20376;-77
2021/07/24 00:20:24;;;;;;;5.20;3.47;;;;;;;18.38;67.14;100896.09;5028944;28;20029;-76
2021/07/24 00:22:50;;;;;;;7.65;4.30;;;;;;;18.36;67.43;100890.25;5023190;28;20428;-77
2021/07/24 00:25:15;;;;;;;9.30;3.45;;;;;;;18.35;67.46;100900.97;5030936;28;20037;-77
2021/07/24 00:27:41;;;;;;;7.60;4.45;;;;;;;18.31;67.31;100900.59;5029892;28;20041;-77
2021/07/24 00:30:07;;;;;;;8.30;4.13;;;;;;;18.30;67.48;100896.34;5031159;28;20319;-76
2021/07/24 00:32:35;;;;;;;5.57;4.00;;;;;;;18.27;67.60;100894.94;5022862;28;20045;-76
2021/07/24 00:35:01;;;;;;;10.15;4.18;;;;;;;18.26;67.62;100889.88;5029655;28;20029;-76
2021/07/24 00:37:26;;;;;;;6.85;4.53;;;;;;;18.23;67.50;100895.53;5026610;28;20033;-76
2021/07/24 00:39:52;;;;;;;8.18;4.57;;;;;;;18.22;67.64;100907.84;5023912;28;20034;-76
2021/07/24 00:42:24;;;;;;;9.15;4.50;;;;;;;18.17;67.52;100910.28;5021024;28;20439;-76
2021/07/24 00:45:03;;;;;;;7.43;4.70;;;;;;;18.14;67.51;100908.06;5028239;28;20033;-76
2021/07/24 00:47:38;;;;;;;6.30;3.88;;;;;;;18.13;67.61;100914.31;5024213;28;20057;-76
2021/07/24 00:50:17;;;;;;;7.38;4.53;;;;;;;18.12;67.57;100911.88;5037975;28;20040;-76
2021/07/24 00:52:43;;;;;;;10.57;4.45;;;;;;;18.10;67.48;100909.47;5019353;28;20095;-76
2021/07/24 00:55:14;;;;;;;6.82;3.83;;;;;;;18.09;67.67;100903.41;5026117;28;20403;-76
2021/07/24 00:57:41;;;;;;;8.18;4.78;;;;;;;18.07;67.65;100908.06;5023044;28;20042;-76
2021/07/24 01:00:08;;;;;;;5.80;4.03;;;;;;;18.04;67.79;100900.59;5024345;28;20395;-76
2021/07/24 01:02:34;;;;;;;8.63;4.30;;;;;;;18.02;67.77;100893.94;5031782;28;20025;-77
2021/07/24 01:05:02;;;;;;;8.50;4.85;;;;;;;18.00;67.78;100899.38;5022571;28;20525;-76
2021/07/24 01:07:29;;;;;;;7.80;4.97;;;;;;;17.98;67.75;100898.78;5004619;28;20026;-76
2021/07/24 01:09:57;;;;;;;8.98;5.05;;;;;;;17.96;67.96;100892.13;5024293;28;20029;-76
2021/07/24 01:12:23;;;;;;;6.65;4.57;;;;;;;17.92;68.24;100886.47;5020412;28;20040;-76
2021/07/24 01:14:50;;;;;;;7.53;4.75;;;;;;;17.88;68.37;100883.44;5012263;28;20030;-76
2021/07/24 01:17:16;;;;;;;7.85;4.55;;;;;;;17.85;68.49;100883.84;5031931;28;20538;-76
2021/07/24 01:19:42;;;;;;;8.00;4.70;;;;;;;17.82;68.59;100883.41;5024994;28;20032;-76
2021/07/24 01:22:10;;;;;;;17.10;5.95;;;;;;;17.79;68.59;100887.25;5028692;28;20052;-76
2021/07/24 01:24:37;;;;;;;7.03;4.50;;;;;;;17.77;68.72;100883.22;5027652;28;20412;-76
2021/07/24 01:27:09;;;;;;;8.85;5.45;;;;;;;17.74;68.56;100883.63;5028092;28;20091;-76
2021/07/24 01:29:38;;;;;;;7.65;4.80;;;;;;;17.73;68.83;100887.28;5024977;28;20041;-76
2021/07/24 01:32:07;;;;;;;10.85;5.28;;;;;;;17.69;69.02;100879.78;5029167;28;20033;-76
2021/07/24 01:34:34;;;;;;;9.88;5.03;;;;;;;17.68;69.03;100880.00;5035045;28;22038;-76
2021/07/24 01:37:02;;;;;;;7.43;5.10;;;;;;;17.64;69.21;100869.09;5030245;28;20113;-76
2021/07/24 01:39:29;;;;;;;8.90;5.35;;;;;;;17.60;69.41;100875.75;5025230;28;20029;-76
2021/07/24 01:41:55;;;;;;;10.38;5.13;;;;;;;17.56;69.54;100871.91;5032244;28;20028;-76
2021/07/24 01:44:23;;;;;;;10.05;4.70;;;;;;;17.54;69.42;100873.94;5007586;28;20095;-76
2021/07/24 01:46:49;;;;;;;9.68;4.90;;;;;;;17.52;69.46;100882.00;5030469;28;20024;-76
2021/07/24 01:55:04;;;;;;;8.52;4.75;;;;;;;17.48;69.41;100878.16;5025085;28;20381;-76
2021/07/24 01:57:40;;;;;;;7.72;5.18;;;;;;;17.49;69.50;100878.97;5034781;28;20033;-76
2021/07/24 02:00:10;;;;;;;9.40;5.28;;;;;;;17.47;69.33;100880.97;5032911;28;20037;-76
2021/07/24 02:02:52;;;;;;;10.30;5.47;;;;;;;17.44;69.46;100876.94;5028226;28;20075;-76
2021/07/24 02:05:45;;;;;;;9.50;4.85;;;;;;;17.41;69.69;100881.78;5032819;28;20037;-76
2021/07/24 02:08:15;;;;;;;7.30;4.90;;;;;;;17.38;69.81;100869.88;5026516;28;20397;-76
2021/07/24 02:10:42;;;;;;;10.30;4.90;;;;;;;17.30;70.34;100868.25;5019984;28;20041;-76
2021/07/24 02:13:10;;;;;;;10.85;5.63;;;;;;;17.28;70.56;100870.25;5008644;28;20137;-76
2021/07/24 02:15:37;;;;;;;8.38;5.18;;;;;;;17.26;70.49;100872.25;5030184;28;20045;-76
2021/07/24 02:18:03;;;;;;;9.57;5.47;;;;;;;17.22;70.40;100872.88;5025530;28;20372;-76
2021/07/24 02:20:31;;;;;;;14.80;5.30;;;;;;;17.17;70.74;100862.97;5009167;28;20037;-76
2021/07/24 02:22:56;;;;;;;7.10;4.90;;;;;;;17.16;70.33;100858.75;5021597;28;20038;-76
2021/07/24 02:25:22;;;;;;;7.55;4.80;;;;;;;17.12;70.76;100854.88;5033265;28;20037;-76
2021/07/24 02:27:49;;;;;;;8.57;4.82;;;;;;;17.08;71.10;100848.44;5011034;28;20116;-76
2021/07/24 02:30:17;;;;;;;8.98;4.80;;;;;;;17.04;71.30;100850.63;5032261;28;20029;-75
2021/07/24 02:32:43;;;;;;;9.27;4.93;;;;;;;17.00;71.47;100846.81;5030685;28;20122;-76
2021/07/24 02:35:10;;;;;;;11.18;5.03;;;;;;;16.96;71.90;100847.41;5032102;28;20506;-76
2021/07/24 02:37:45;;;;;;;9.32;5.28;;;;;;;16.93;71.81;100830.25;5029970;28;20659;-75
2021/07/24 02:40:12;;;;;;;11.45;4.55;;;;;;;16.87;72.08;100820.56;5036015;28;20025;-76
2021/07/24 02:42:49;;;;;;;11.35;5.55;;;;;;;16.85;72.22;100815.53;5024982;28;20037;-76
2021/07/24 02:45:15;;;;;;;9.10;5.57;;;;;;;16.85;71.83;100810.28;5016261;28;20504;-77
2021/07/24 02:47:40;;;;;;;8.75;5.47;;;;;;;16.83;72.00;100799.22;5030036;28;20065;-77
2021/07/24 02:50:06;;;;;;;8.40;5.60;;;;;;;16.82;71.98;100795.00;5035030;28;20593;-76
2021/07/24 02:52:33;;;;;;;8.30;5.70;;;;;;;16.82;71.93;100787.13;5037881;28;20522;-76
2021/07/24 02:54:58;;;;;;;12.13;5.88;;;;;;;16.80;72.07;100773.41;5033619;28;20037;-76
2021/07/24 02:57:24;;;;;;;14.45;5.82;;;;;;;16.80;72.04;100772.59;5026606;28;20025;-75
2021/07/24 02:59:50;;;;;;;10.00;6.53;;;;;;;16.77;72.23;100765.94;5033672;28;20064;-75
2021/07/24 03:02:16;;;;;;;13.15;7.13;;;;;;;16.74;72.30;100766.31;5016548;28;20029;-76
2021/07/24 03:04:42;;;;;;;13.10;6.68;;;;;;;16.71;72.31;100778.00;5026778;28;20410;-76
2021/07/24 03:07:08;;;;;;;9.85;6.53;;;;;;;16.70;72.30;100778.19;5017760;28;20052;-76
2021/07/24 03:09:33;;;;;;;11.23;6.35;;;;;;;16.69;72.21;100772.16;5031888;28;20064;-76
2021/07/24 03:11:59;;;;;;;13.30;6.93;;;;;;;16.67;72.57;100778.56;5036844;28;20034;-77
2021/07/24 03:14:24;;;;;;;12.40;6.05;;;;;;;16.65;72.31;100776.19;5029680;28;20045;-76
2021/07/24 03:16:50;;;;;;;13.07;7.22;;;;;;;16.64;72.33;100758.06;5020500;28;20040;-76
2021/07/24 03:19:15;;;;;;;9.35;6.80;;;;;;;16.61;72.72;100756.63;5017902;28;20021;-76
2021/07/24 03:21:41;;;;;;;16.35;7.00;;;;;;;16.53;73.19;100754.97;5038763;28;20044;-76
2021/07/24 03:24:06;;;;;;;10.60;6.97;;;;;;;16.49;73.07;100753.75;5032782;28;20037;-76
2021/07/24 03:26:32;;;;;;;12.38;7.47;;;;;;;16.44;73.37;100740.44;5033386;28;20049;-75
2021/07/24 03:28:57;;;;;;;12.68;8.60;;;;;;;16.39;73.71;100736.81;5018527;28;20120;-76
2021/07/24 03:31:23;;;;;;;15.00;8.70;;;;;;;16.23;74.07;100736.16;5023472;28;20544;-75
2021/07/24 03:33:48;;;;;;;18.30;9.40;;;;;;;16.20;74.46;100730.50;5030027;28;20044;-76
2021/07/24 03:36:14;;;;;;;19.48;9.45;;;;;;;16.19;74.77;100734.13;5029903;28;20033;-76
2021/07/24 03:38:39;;;;;;;16.63;7.97;;;;;;;16.18;74.93;100733.31;5029473;28;20028;-77
2021/07/24 03:41:05;;;;;;;18.90;9.40;;;;;;;16.21;74.47;100737.34;5026262;28;20036;-75
2021/07/24 03:43:31;;;;;;;14.45;8.15;;;;;;;16.19;74.51;100742.78;5014970;28;20402;-77
2021/07/24 03:45:57;;;;;;;11.07;6.78;;;;;;;16.19;74.42;100742.78;5027919;28;20080;-76
2021/07/24 03:48:22;;;;;;;12.77;7.38;;;;;;;16.21;74.49;100747.81;5025399;28;20033;-76
2021/07/24 03:50:48;;;;;;;14.27;8.32;;;;;;;16.25;74.38;100760.31;5024831;28;20110;-75
2021/07/24 03:53:13;;;;;;;15.38;7.18;;;;;;;16.28;74.34;100759.13;5042449;28;20022;-77
2021/07/24 03:55:39;;;;;;;13.27;7.20;;;;;;;16.34;74.10;100768.81;5041949;28;20048;-77
2021/07/24 03:58:04;;;;;;;15.25;8.48;;;;;;;16.38;73.85;100762.19;5015960;28;20036;-76
2021/07/24 04:00:37;;;;;;;13.35;6.68;;;;;;;16.42;73.52;100759.97;5034030;28;20017;-77
2021/07/24 04:03:03;;;;;;;12.90;8.25;;;;;;;16.44;73.73;100756.16;5037853;28;20452;-76
2021/07/24 04:05:32;;;;;;;12.82;6.90;;;;;;;16.47;73.92;100763.63;5028240;28;20033;-76
2021/07/24 04:07:58;;;;;;;10.48;6.65;;;;;;;16.47;74.14;100752.34;5029921;28;20037;-77
2021/07/24 04:10:24;;;;;;;17.98;7.68;;;;;;;16.48;74.37;100741.69;5035065;28;20029;-76
2021/07/24 04:12:52;;;;;;;16.92;7.00;;;;;;;16.50;74.14;100739.69;5035381;28;20424;-76
2021/07/24 04:15:18;;;;;;;11.73;7.22;;;;;;;16.52;74.11;100732.44;5035033;28;20080;-76
2021/07/24 04:17:44;;;;;;;12.00;7.32;;;;;;;16.53;74.11;100741.09;5027666;28;20061;-76
2021/07/24 04:20:10;;;;;;;14.93;8.27;;;;;;;16.53;74.04;100746.34;5014266;28;20487;-76
2021/07/24 04:22:36;;;;;;;12.73;7.13;;;;;;;16.56;73.66;100751.19;5028450;28;20037;-76
2021/07/24 04:25:01;;;;;;;13.50;7.85;;;;;;;16.58;74.01;100775.34;5027211;28;20033;-76
2021/07/24 04:27:27;;;;;;;12.88;8.20;;;;;;;16.58;74.41;100788.44;5023875;28;20387;-77
2021/07/24 04:29:52;;;;;;;11.75;7.68;;;;;;;16.59;74.33;100786.63;5030283;28;20045;-76
2021/07/24 04:32:18;;;;;;;15.88;8.40;;;;;;;16.62;74.33;100786.22;5024675;28;20364;-75
2021/07/24 04:34:43;;;;;;;12.23;7.22;;;;;;;16.63;74.32;100780.81;5028199;28;20037;-76
2021/07/24 04:37:09;;;;;;;12.20;7.68;;;;;;;16.65;74.63;100788.44;5015963;28;20037;-77
2021/07/24 04:39:35;;;;;;;13.88;7.78;;;;;;;16.65;74.97;100794.50;5028622;28;20025;-77
2021/07/24 04:42:00;;;;;;;16.25;7.53;;;;;;;16.68;74.60;100794.09;5016051;28;20056;-76
2021/07/24 04:44:26;;;;;;;11.02;6.85;;;;;;;16.72;73.90;100787.47;5020235;28;20544;-77
2021/07/24 04:46:51;;;;;;;10.77;6.85;;;;;;;16.75;73.76;100786.28;5012999;28;20091;-77
2021/07/24 04:49:17;;;;;;;12.68;7.25;;;;;;;16.78;73.84;100791.09;5026795;28;20409;-77
2021/07/24 04:51:42;;;;;;;10.40;7.70;;;;;;;16.81;74.21;100789.91;5023602;28;20041;-78
2021/07/24 04:54:08;;;;;;;47.20;8.70;;;;;;;16.83;74.07;100787.94;5022048;28;20030;-77
2021/07/24 04:56:36;;;;;;;9.85;6.78;;;;;;;16.85;73.80;100773.63;5017918;28;20033;-77
2021/07/24 04:59:04;;;;;;;10.20;6.82;;;;;;;16.86;74.19;100777.88;5026251;28;20080;-77
2021/07/24 05:01:29;;;;;;;12.27;6.63;;;;;;;16.89;74.39;100774.03;5012404;28;20041;-77
2021/07/24 05:03:57;;;;;;;10.18;6.78;;;;;;;16.92;74.08;100768.44;5028951;28;20486;-76
2021/07/24 05:06:23;;;;;;;11.75;7.15;;;;;;;16.93;74.16;100763.00;5028471;28;20063;-77
2021/07/24 05:08:48;;;;;;;9.10;6.78;;;;;;;16.93;75.14;100773.47;5014791;28;20057;-77
2021/07/24 05:11:14;;;;;;;10.98;7.28;;;;;;;16.90;75.62;100775.69;5028266;28;20032;-77
2021/07/24 05:13:39;;;;;;;13.00;7.95;;;;;;;16.93;75.57;100772.63;5032721;28;20479;-79
2021/07/24 05:16:05;;;;;;;10.95;6.90;;;;;;;17.00;75.17;100756.94;5012292;28;20029;-77
2021/07/24 05:18:30;;;;;;;16.00;7.68;;;;;;;17.06;74.68;100753.53;5036902;28;20091;-77
2021/07/24 05:20:56;;;;;;;12.45;7.72;;;;;;;17.13;74.39;100749.09;5021362;28;20021;-77
2021/07/24 05:23:21;;;;;;;10.20;6.55;;;;;;;17.19;74.15;100729.97;5032133;28;20041;-77
2021/07/24 05:25:47;;;;;;;16.27;8.93;;;;;;;17.22;74.72;100726.94;5009388;28;20040;-78
2021/07/24 05:28:12;;;;;;;14.60;8.50;;;;;;;17.26;75.18;100724.72;5024781;28;20103;-78
2021/07/24 05:30:38;;;;;;;11.63;7.65;;;;;;;17.32;75.02;100719.47;5027073;28;20045;-76
2021/07/24 05:33:03;;;;;;;17.55;9.27;;;;;;;17.30;74.59;100715.47;5021695;28;20041;-77
2021/07/24 05:35:29;;;;;;;16.13;8.10;;;;;;;17.30;74.51;100723.31;5021395;28;20087;-76
2021/07/24 05:37:54;;;;;;;14.70;8.18;;;;;;;17.37;74.45;100721.50;5012884;28;20034;-77
2021/07/24 05:40:20;;;;;;;14.80;9.05;;;;;;;17.45;74.27;100721.28;5020696;28;20030;-76
2021/07/24 05:42:45;;;;;;;14.23;9.18;;;;;;;17.51;74.11;100715.22;5028532;28;20112;-76
2021/07/24 05:45:11;;;;;;;12.48;7.78;;;;;;;17.56;74.15;100724.31;5012649;28;20433;-75
2021/07/24 05:47:36;;;;;;;15.48;9.85;;;;;;;17.54;73.35;100723.69;5031175;28;20063;-76
2021/07/24 05:50:03;;;;;;;16.92;8.75;;;;;;;17.57;73.13;100721.47;5040755;28;20099;-76
2021/07/24 05:52:28;;;;;;;13.30;7.90;;;;;;;17.63;73.05;100709.34;5030748;28;20092;-76
2021/07/24 05:54:54;;;;;;;14.43;8.63;;;;;;;17.71;72.88;100724.91;5027961;28;20041;-76
2021/07/24 05:57:20;;;;;;;16.77;8.90;;;;;;;17.80;72.36;100722.84;5031725;28;20022;-76
2021/07/24 05:59:45;;;;;;;11.82;8.50;;;;;;;17.86;72.18;100728.13;5023079;28;20475;-76
2021/07/24 06:02:11;;;;;;;16.25;9.25;;;;;;;17.97;72.30;100717.97;5028544;28;20537;-76
2021/07/24 06:04:39;;;;;;;16.73;8.68;;;;;;;18.00;72.63;100707.09;5032015;28;20041;-76
2021/07/24 06:07:04;;;;;;;12.10;7.80;;;;;;;18.08;72.54;100696.34;5022378;28;20029;-76
2021/07/24 06:09:30;;;;;;;14.68;9.40;;;;;;;18.15;73.02;100699.75;5014919;28;20041;-76
2021/07/24 06:11:55;;;;;;;17.17;9.73;;;;;;;18.20;72.94;100699.94;5032063;28;20423;-76
2021/07/24 06:14:22;;;;;;;19.23;9.63;;;;;;;18.32;72.59;100688.78;5018708;28;20040;-76
2021/07/24 06:16:48;;;;;;;23.08;10.10;;;;;;;18.39;72.20;100676.44;5023497;28;20036;-76
2021/07/24 06:19:13;;;;;;;14.63;9.05;;;;;;;18.53;71.76;100677.97;5011413;28;20025;-76
2021/07/24 06:21:39;;;;;;;16.95;10.07;;;;;;;18.58;71.64;100674.72;5019436;28;20400;-76
2021/07/24 06:24:04;;;;;;;16.20;8.85;;;;;;;18.64;71.73;100676.47;5025120;28;20037;-76
2021/07/24 06:26:30;;;;;;;14.93;9.77;;;;;;;18.70;71.77;100678.25;5022232;28;20077;-76
2021/07/24 06:28:55;;;;;;;15.15;9.35;;;;;;;18.72;71.68;100670.97;5025409;28;20033;-76
2021/07/24 06:31:20;;;;;;;23.20;11.60;;;;;;;18.74;70.61;100663.72;5027516;28;20041;-77
2021/07/24 06:33:46;;;;;;;22.90;10.40;;;;;;;18.62;71.18;100660.13;5036845;28;20475;-76
2021/07/24 06:36:11;;;;;;;17.50;10.57;;;;;;;18.59;72.11;100655.31;5021319;28;20041;-78
2021/07/24 06:38:37;;;;;;;18.00;10.55;;;;;;;18.65;72.14;100662.34;5033334;28;20036;-78
2021/07/24 06:41:05;;;;;;;18.35;10.13;;;;;;;18.63;72.46;100646.00;5013072;28;20049;-76
2021/07/24 06:43:30;;;;;;;17.02;10.10;;;;;;;18.70;72.21;100645.94;5031345;28;20533;-77
2021/07/24 06:45:56;;;;;;;19.85;11.48;;;;;;;18.78;72.04;100641.25;5028531;28;20037;-77
2021/07/24 06:48:21;;;;;;;16.58;11.38;;;;;;;18.77;71.93;100646.72;5021807;28;20042;-77
2021/07/24 06:50:47;;;;;;;18.55;10.95;;;;;;;18.72;72.38;100642.06;5033281;28;20048;-76
2021/07/24 06:53:12;;;;;;;20.08;11.48;;;;;;;18.90;71.34;100649.25;5034792;28;20029;-76
2021/07/24 06:55:37;;;;;;;23.98;12.85;;;;;;;18.85;71.48;100644.66;5033466;28;20033;-76
2021/07/24 06:58:03;;;;;;;22.10;11.38;;;;;;;18.88;71.54;100640.00;5013798;28;20046;-76
2021/07/24 07:00:32;;;;;;;17.23;10.95;;;;;;;18.90;71.15;100637.94;5046244;28;20029;-77
2021/07/24 07:02:59;;;;;;;19.80;9.25;;;;;;;18.97;71.02;100633.47;5025044;28;20076;-76
2021/07/24 07:05:29;;;;;;;15.60;9.65;;;;;;;19.06;70.67;100622.44;5013445;28;20556;-76
2021/07/24 07:07:54;;;;;;;16.10;9.45;;;;;;;19.15;70.37;100625.59;5031014;28;20091;-77
2021/07/24 07:10:20;;;;;;;13.65;9.82;;;;;;;19.19;70.41;100624.16;5006284;28;20042;-77
2021/07/24 07:12:46;;;;;;;15.05;10.00;;;;;;;19.28;70.64;100622.03;5030775;28;20032;-79
2021/07/24 07:15:12;;;;;;;17.05;8.82;;;;;;;19.38;69.93;100617.09;5025422;28;20037;-77
2021/07/24 07:17:37;;;;;;;20.20;10.43;;;;;;;19.50;69.50;100614.53;5011083;28;20506;-77
2021/07/24 07:20:05;;;;;;;19.90;11.70;;;;;;;19.56;69.14;100612.84;5014498;28;20025;-76
2021/07/24 07:22:31;;;;;;;18.50;10.85;;;;;;;19.63;68.73;100609.09;5034080;28;20017;-77
2021/07/24 07:24:56;;;;;;;14.65;10.15;;;;;;;19.75;68.22;100611.81;5027535;28;20025;-77
2021/07/24 07:27:22;;;;;;;18.95;11.18;;;;;;;19.91;67.20;100607.81;5028332;28;20041;-78
2021/07/24 07:29:47;;;;;;;16.60;10.57;;;;;;;20.02;67.38;100604.41;5013869;28;20103;-77
2021/07/24 07:32:14;;;;;;;19.83;10.80;;;;;;;20.20;66.56;100598.28;5026859;28;20037;-77
2021/07/24 07:34:40;;;;;;;20.25;11.93;;;;;;;20.20;66.20;100586.97;5003882;28;20033;-77
2021/07/24 07:37:05;;;;;;;18.02;10.02;;;;;;;20.39;66.16;100577.16;5026114;28;20125;-77
2021/07/24 07:39:31;;;;;;;19.00;11.38;;;;;;;20.64;65.00;100561.16;5038578;28;20025;-78
2021/07/24 07:41:57;;;;;;;19.15;12.38;;;;;;;20.97;64.04;100557.19;5030604;28;20784;-77
2021/07/24 07:44:24;;;;;;;22.60;12.48;;;;;;;21.34;62.97;100562.13;5028580;28;20092;-77
2021/07/24 07:46:50;;;;;;;20.23;11.82;;;;;;;21.48;60.89;100565.38;5031790;28;20022;-76
2021/07/24 07:49:16;;;;;;;24.63;12.10;;;;;;;21.68;59.90;100572.84;5031451;28;20067;-76
2021/07/24 07:51:41;;;;;;;19.52;11.02;;;;;;;21.94;59.91;100579.41;5023970;28;20037;-77
2021/07/24 07:54:07;;;;;;;17.33;10.75;;;;;;;22.52;58.57;100574.84;5049957;28;20033;-74
2021/07/24 07:56:32;;;;;;;16.98;9.93;;;;;;;22.87;56.63;100577.22;5027593;28;20044;-78
2021/07/24 07:58:57;;;;;;;16.50;10.77;;;;;;;23.09;56.65;100584.41;5033749;28;20029;-77
2021/07/24 08:01:23;;;;;;;19.30;10.25;;;;;;;23.06;56.09;100582.28;5016715;28;20722;-75
2021/07/24 08:03:49;;;;;;;16.88;9.73;;;;;;;23.11;56.17;100582.31;5039462;28;20029;-80
2021/07/24 08:06:15;;;;;;;15.02;9.85;;;;;;;23.04;56.20;100574.56;5031342;28;20029;-78
2021/07/24 08:08:41;;;;;;;22.33;10.00;;;;;;;22.87;57.15;100582.50;5029101;28;20052;-77
2021/07/24 08:11:06;;;;;;;17.77;9.93;;;;;;;22.83;57.02;100581.41;5015011;28;20084;-76
2021/07/24 08:13:32;;;;;;;17.83;9.57;;;;;;;22.64;57.92;100569.47;5016451;28;20045;-76
2021/07/24 08:15:58;;;;;;;15.65;9.25;;;;;;;22.51;58.48;100570.63;5032596;28;20069;-77
2021/07/24 08:18:23;;;;;;;17.77;8.35;;;;;;;22.37;59.22;100571.97;5029483;28;20033;-77
2021/07/24 08:20:49;;;;;;;16.15;8.77;;;;;;;22.28;58.87;100580.31;5038482;28;20049;-76
2021/07/24 08:23:14;;;;;;;16.60;9.77;;;;;;;;;;5032087;28;20030;-77
2021/07/24 08:25:40;;;;;;;16.00;8.18;;;;;;;22.27;59.89;100575.25;5026854;28;20045;-77
2021/07/24 08:28:06;;;;;;;14.85;9.20;;;;;;;22.38;58.82;100573.56;5028465;28;20108;-77
2021/07/24 08:30:33;;;;;;;14.50;9.10;;;;;;;22.51;58.12;100583.84;5020824;28;20125;-78
2021/07/24 08:32:59;;;;;;;15.82;9.10;;;;;;;22.45;59.16;100582.97;5029781;28;20033;-76
2021/07/24 08:35:25;;;;;;;14.60;8.30;;;;;;;22.38;59.39;100586.75;5022326;28;20041;-79
2021/07/24 08:37:51;;;;;;;16.45;9.23;;;;;;;22.45;58.23;100590.06;5011059;28;20025;-78
2021/07/24 08:40:16;;;;;;;20.58;11.27;;;;;;;22.31;59.36;100590.38;5023590;28;20033;-78
2021/07/24 08:42:42;;;;;;;14.38;8.88;;;;;;;22.37;60.35;100587.81;5027167;28;20112;-78
2021/07/24 08:45:17;;;;;;;15.98;9.48;;;;;;;22.26;60.79;100582.34;5028539;28;20041;-78
2021/07/24 08:47:43;;;;;;;16.83;9.45;;;;;;;22.30;60.73;100591.44;5022499;28;20034;-79
2021/07/24 08:50:10;;;;;;;15.05;9.07;;;;;;;22.37;60.12;100588.63;5009593;28;20033;-78
2021/07/24 08:52:37;;;;;;;18.33;9.00;;;;;;;22.49;59.87;100584.06;5020954;28;20045;-77
2021/07/24 08:55:05;;;;;;;19.17;9.27;;;;;;;22.59;58.77;100574.69;5023201;28;20080;-79
2021/07/24 08:57:36;;;;;;;16.45;8.82;;;;;;;22.56;59.22;100581.25;5024593;28;20041;-79
2021/07/24 09:00:15;;;;;;;21.13;9.80;;;;;;;22.78;57.90;100580.53;5032239;28;20374;-77
2021/07/24 09:02:42;;;;;;;16.50;8.88;;;;;;;22.68;58.20;100576.69;4998753;28;20471;-78
2021/07/24 09:05:11;;;;;;;18.10;9.45;;;;;;;22.44;59.21;100568.13;5008030;28;20041;-78
2021/07/24 09:07:39;;;;;;;15.02;7.40;;;;;;;22.38;60.24;100573.56;5004903;28;20042;-79
2021/07/24 09:10:06;;;;;;;29.10;11.65;;;;;;;22.45;59.18;100572.38;5026729;28;20037;-80
2021/07/24 09:12:34;;;;;;;19.75;10.07;;;;;;;22.35;59.61;100588.06;5020959;28;20479;-77
2021/07/24 09:14:59;;;;;;;19.50;9.27;;;;;;;22.19;60.63;100594.91;5020059;28;20539;-78
2021/07/24 09:17:25;;;;;;;15.48;9.95;;;;;;;22.19;60.80;100602.81;5009767;28;20037;-78
2021/07/24 09:19:51;;;;;;;16.92;8.80;;;;;;;22.22;61.24;100607.63;5017897;28;20034;-77
2021/07/24 09:22:31;;;;;;;13.02;8.55;;;;;;;22.16;62.59;100601.44;5029556;28;20063;-77
2021/07/24 09:25:20;;;;;;;14.10;9.23;;;;;;;22.11;62.55;100605.84;5023393;28;20461;-78
2021/07/24 09:27:51;;;;;;;23.80;10.27;;;;;;;22.13;61.57;100609.84;5006016;28;20033;-78
2021/07/24 09:30:28;;;;;;;21.48;10.57;;;;;;;22.30;61.04;100593.25;5031297;28;20059;-79
2021/07/24 09:33:20;;;;;;;16.33;9.82;;;;;;;22.19;61.86;100600.19;5006086;28;20052;-78
2021/07/24 09:35:51;;;;;;;15.73;9.50;;;;;;;22.22;60.78;100594.41;5038849;28;20042;-79
2021/07/24 09:38:31;;;;;;;30.17;10.13;;;;;;;22.22;60.41;100597.06;5029127;28;20067;-78
2021/07/24 09:40:58;;;;;;;19.67;9.52;;;;;;;22.38;57.35;100592.88;5035773;28;20152;-78
2021/07/24 09:43:33;;;;;;;21.23;10.50;;;;;;;22.39;57.95;100606.88;5030297;28;20041;-78
2021/07/24 09:46:19;;;;;;;17.08;9.48;;;;;;;22.32;58.44;100597.28;5012603;28;20120;-77
2021/07/24 09:48:47;;;;;;;18.70;10.43;;;;;;;22.45;57.37;100600.63;5030720;28;20040;-78
2021/07/24 09:51:13;;;;;;;26.90;10.30;;;;;;;22.38;58.20;100599.97;5028465;28;20099;-77
2021/07/24 09:53:41;;;;;;;16.48;10.85;;;;;;;22.37;58.22;100598.38;5021434;28;20025;-77
2021/07/24 09:56:11;;;;;;;16.60;9.90;;;;;;;22.32;56.77;100599.91;5003905;28;20029;-79
2021/07/24 09:58:38;;;;;;;19.75;11.05;;;;;;;22.14;57.73;100600.09;5032353;28;20102;-76
2021/07/24 10:01:06;;;;;;;17.63;10.38;;;;;;;22.07;58.31;100605.50;5030768;28;20030;-76
2021/07/24 10:03:34;;;;;;;14.02;9.63;;;;;;;22.01;58.43;100603.81;5039116;28;20116;-75
2021/07/24 10:06:02;;;;;;;17.65;10.18;;;;;;;22.01;58.67;100600.38;5018610;28;20037;-75
2021/07/24 10:08:30;;;;;;;16.35;9.80;;;;;;;22.01;59.26;100603.81;5012451;28;20415;-75
2021/07/24 10:10:56;;;;;;;15.95;10.35;;;;;;;22.01;59.14;100605.66;5016305;28;20538;-76
2021/07/24 10:13:23;;;;;;;17.42;10.00;;;;;;;22.03;58.87;100608.88;5011009;28;20083;-75
2021/07/24 10:15:48;;;;;;;15.40;10.57;;;;;;;22.03;59.37;100604.38;5028895;28;20030;-75
2021/07/24 10:18:15;;;;;;;18.50;10.93;;;;;;;22.00;57.87;100615.44;5039190;28;20040;-75
2021/07/24 10:20:47;;;;;;;20.60;10.07;;;;;;;21.91;58.76;100617.63;5023443;28;20313;-76
2021/07/24 10:23:13;;;;;;;19.00;11.30;;;;;;;21.83;58.86;100620.66;5029804;28;20057;-74
2021/07/24 10:25:49;;;;;;;16.85;10.95;;;;;;;21.94;57.97;100616.34;5025681;28;20399;-76
2021/07/24 10:28:21;;;;;;;18.63;11.02;;;;;;;21.88;58.77;100617.31;5019184;28;20034;-76
2021/07/24 10:30:51;;;;;;;18.40;10.57;;;;;;;21.83;58.54;100620.66;5029150;28;20127;-73
2021/07/24 10:33:18;;;;;;;17.77;10.48;;;;;;;21.77;58.71;100619.75;5028234;28;20021;-75
2021/07/24 10:35:44;;;;;;;18.08;11.13;;;;;;;21.74;59.47;100624.69;5034250;28;20040;-75
2021/07/24 10:38:30;;;;;;;18.23;11.45;;;;;;;21.80;58.96;100633.53;5029040;28;20391;-74
2021/07/24 10:41:21;;;;;;;18.27;11.25;;;;;;;21.74;58.83;100630.78;5024179;28;20107;-72
2021/07/24 10:44:06;;;;;;;20.50;11.70;;;;;;;21.64;59.36;100640.31;5020759;28;20030;-74
2021/07/24 10:46:40;;;;;;;20.20;11.55;;;;;;;21.55;59.97;100645.16;5038270;28;20056;-75
2021/07/24 10:49:21;;;;;;;24.35;10.98;;;;;;;21.42;60.62;100638.28;5034329;28;20029;-73
2021/07/24 10:51:57;;;;;;;18.70;10.88;;;;;;;21.45;60.70;100640.47;5035182;28;20040;-75
2021/07/24 10:54:23;;;;;;;15.95;10.73;;;;;;;21.41;60.82;100646.41;5039918;28;20108;-75
2021/07/24 10:56:49;;;;;;;15.82;10.10;;;;;;;21.38;61.25;100650.31;5036337;28;20025;-75
2021/07/24 10:59:17;;;;;;;20.08;10.45;;;;;;;21.41;62.26;100641.94;5025994;28;20037;-75
2021/07/24 11:01:45;;;;;;;18.67;11.43;;;;;;;21.38;62.79;100642.41;5042092;28;20471;-75
2021/07/24 11:04:35;;;;;;;17.88;9.88;;;;;;;21.37;62.74;100638.94;5036497;28;20025;-76
2021/07/24 11:07:13;;;;;;;14.75;9.82;;;;;;;21.39;63.11;100630.81;5026433;28;20399;-75
2021/07/24 11:09:40;;;;;;;23.48;11.93;;;;;;;21.41;62.95;100622.69;5037902;28;20037;-75
2021/07/24 11:12:06;;;;;;;23.23;11.77;;;;;;;21.45;61.35;100631.75;5033699;28;20037;-75
2021/07/24 11:14:38;;;;;;;17.02;10.35;;;;;;;21.35;62.19;100629.69;5028809;28;20052;-76
2021/07/24 11:17:03;;;;;;;15.27;9.90;;;;;;;21.33;62.64;100632.53;5031174;28;20141;-75
2021/07/24 11:19:29;;;;;;;19.75;11.32;;;;;;;21.33;63.52;100637.81;5026179;28;20586;-75
2021/07/24 11:22:07;;;;;;;16.25;11.23;;;;;;;21.36;63.32;100640.00;5030365;28;20045;-76
2021/07/24 11:24:32;;;;;;;20.95;12.15;;;;;;;21.37;63.68;100643.44;5030469;28;20559;-76